createdAt,value
2018-08-22T00:00:26.359Z,41.40
2018-08-22T00:02:54.963Z,41.60
2018-08-22T00:05:23.650Z,41.80
2018-08-22T00:07:52.345Z,41.50
2018-08-22T00:10:21.333Z,41.60
2018-08-22T00:12:50.602Z,41.80
2018-08-22T00:15:19.038Z,41.80
2018-08-22T00:17:47.530Z,41.70
2018-08-22T00:20:16.280Z,41.90
2018-08-22T00:22:44.959Z,42.10
2018-08-22T00:25:13.856Z,42.20
2018-08-22T00:27:42.431Z,42.50
2018-08-22T00:30:10.673Z,43.00
2018-08-22T00:32:39.302Z,43.20
2018-08-22T00:35:07.928Z,43.40
2018-08-22T00:37:36.732Z,43.90
2018-08-22T00:40:05.128Z,43.90
2018-08-22T00:42:33.855Z,43.40
2018-08-22T00:45:02.596Z,43.80
2018-08-22T00:47:31.916Z,43.90
2018-08-22T00:50:02.385Z,43.40
2018-08-22T00:52:33.116Z,43.80
2018-08-22T00:55:02.274Z,43.90
2018-08-22T00:57:31.226Z,44.00
2018-08-22T00:59:59.542Z,43.90
2018-08-22T01:02:28.161Z,44.10
2018-08-22T01:04:56.625Z,44.60
2018-08-22T01:07:25.032Z,44.80
2018-08-22T01:09:53.256Z,45.10
2018-08-22T01:12:21.850Z,45.40
2018-08-22T01:14:50.059Z,45.40
2018-08-22T01:17:18.332Z,45.10
2018-08-22T01:19:46.665Z,45.60
2018-08-22T01:22:14.900Z,45.70
2018-08-22T01:24:43.119Z,45.70
2018-08-22T01:27:16.210Z,45.70
2018-08-22T01:29:44.483Z,45.80
2018-08-22T01:32:12.970Z,46.10
2018-08-22T01:34:41.345Z,46.20
2018-08-22T01:37:09.596Z,45.90
2018-08-22T01:39:38.505Z,46.40
2018-08-22T01:42:06.995Z,46.60
2018-08-22T01:44:35.316Z,46.50
2018-08-22T01:47:03.709Z,46.30
2018-08-22T01:49:31.947Z,46.60
2018-08-22T01:52:00.531Z,46.70
2018-08-22T01:54:28.887Z,47.10
2018-08-22T01:56:57.166Z,46.70
2018-08-22T01:59:26.369Z,47.40
2018-08-22T02:01:54.612Z,47.60
2018-08-22T02:04:23.116Z,47.40
2018-08-22T02:06:51.351Z,47.60
2018-08-22T02:09:19.601Z,47.80
2018-08-22T02:11:47.876Z,48.30
2018-08-22T02:14:16.604Z,48.30
2018-08-22T02:16:45.239Z,48.20
2018-08-22T02:21:41.865Z,47.70
2018-08-22T02:24:10.473Z,47.80
2018-08-22T02:26:38.708Z,48.20
2018-08-22T02:29:07.294Z,48.40
2018-08-22T02:31:35.604Z,48.60
2018-08-22T02:34:03.832Z,48.30
2018-08-22T02:36:32.217Z,48.70
2018-08-22T02:39:00.418Z,49.30
2018-08-22T02:41:28.633Z,49.10
2018-08-22T02:43:56.855Z,49.30
2018-08-22T02:46:25.473Z,49.30
2018-08-22T02:48:53.757Z,49.80
2018-08-22T02:51:22.424Z,49.90
2018-08-22T02:53:50.913Z,49.90
2018-08-22T02:56:19.397Z,50.20
2018-08-22T02:58:47.670Z,49.90
2018-08-22T03:01:16.099Z,50.30
2018-08-22T03:03:44.362Z,50.30
2018-08-22T03:06:12.610Z,49.80
2018-08-22T03:08:41.632Z,50.30
2018-08-22T03:11:10.177Z,50.90
2018-08-22T03:13:39.312Z,50.60
2018-08-22T03:16:08.338Z,50.70
2018-08-22T03:18:36.694Z,50.20
2018-08-22T03:21:04.913Z,50.60
2018-08-22T03:23:33.493Z,50.80
2018-08-22T03:26:02.110Z,51.10
2018-08-22T03:28:30.364Z,51.40
2018-08-22T03:30:58.579Z,51.40
2018-08-22T03:33:27.170Z,51.10
2018-08-22T03:35:55.400Z,51.20
2018-08-22T03:38:24.228Z,51.20
2018-08-22T03:40:52.842Z,51.50
2018-08-22T03:43:21.071Z,51.30
2018-08-22T03:45:49.349Z,51.40
2018-08-22T03:48:17.944Z,51.10
2018-08-22T03:50:46.164Z,51.60
2018-08-22T03:53:14.388Z,51.40
2018-08-22T03:55:42.657Z,51.50
2018-08-22T03:58:11.256Z,51.50
2018-08-22T04:00:40.030Z,51.80
2018-08-22T04:03:08.619Z,51.70
2018-08-22T04:05:36.997Z,51.90
2018-08-22T04:08:05.865Z,51.90
2018-08-22T04:10:34.190Z,52.40
2018-08-22T04:13:02.389Z,52.20
2018-08-22T04:15:30.617Z,52.70
2018-08-22T04:17:59.227Z,52.70
2018-08-22T04:20:27.468Z,53.40
2018-08-22T04:22:55.750Z,52.80
2018-08-22T04:25:24.372Z,52.90
2018-08-22T04:27:52.704Z,52.70
2018-08-22T04:30:21.013Z,52.70
2018-08-22T04:32:49.512Z,52.60
2018-08-22T04:35:18.029Z,52.60
2018-08-22T04:37:46.248Z,52.60
2018-08-22T04:40:14.761Z,52.70
2018-08-22T04:42:42.978Z,52.60
2018-08-22T04:45:11.304Z,52.70
2018-08-22T04:47:39.964Z,52.60
2018-08-22T04:50:08.145Z,52.50
2018-08-22T04:52:37.005Z,52.60
2018-08-22T04:55:05.560Z,52.00
2018-08-22T04:57:34.297Z,52.10
2018-08-22T05:00:02.819Z,52.30
2018-08-22T05:02:31.285Z,52.90
2018-08-22T05:04:59.485Z,52.20
2018-08-22T05:07:28.455Z,52.80
2018-08-22T05:09:57.036Z,52.20
2018-08-22T05:12:25.801Z,52.70
2018-08-22T05:17:29.985Z,51.60
2018-08-22T05:19:58.951Z,51.60
2018-08-22T05:22:27.197Z,50.90
2018-08-22T05:24:56.292Z,51.30
2018-08-22T05:27:25.007Z,51.40
2018-08-22T05:29:53.780Z,50.80
2018-08-22T05:32:22.333Z,50.30
2018-08-22T05:34:51.547Z,50.50
2018-08-22T05:37:20.081Z,50.80
2018-08-22T05:39:48.820Z,51.10
2018-08-22T05:42:17.499Z,51.30
2018-08-22T05:44:46.834Z,51.50
2018-08-22T05:47:15.314Z,51.40
2018-08-22T05:49:43.785Z,51.50
2018-08-22T05:52:12.152Z,51.60
2018-08-22T05:54:40.386Z,51.50
2018-08-22T05:57:09.308Z,51.30
2018-08-22T05:59:37.658Z,51.40
2018-08-22T06:02:06.272Z,51.40
2018-08-22T06:04:34.482Z,50.90
2018-08-22T06:07:02.777Z,50.70
2018-08-22T06:09:31.024Z,50.10
2018-08-22T06:11:59.382Z,49.90
2018-08-22T06:14:28.051Z,49.70
2018-08-22T06:16:56.430Z,49.30
2018-08-22T06:19:25.295Z,49.10
2018-08-22T06:21:54.222Z,48.80
2018-08-22T06:24:22.496Z,48.80
2018-08-22T06:26:51.117Z,48.90
2018-08-22T06:29:19.500Z,48.90
2018-08-22T06:31:47.792Z,48.90
2018-08-22T06:34:17.101Z,48.60
2018-08-22T06:36:45.694Z,48.10
2018-08-22T06:39:13.998Z,48.00
2018-08-22T06:41:43.929Z,47.50
2018-08-22T06:44:12.906Z,47.20
2018-08-22T06:46:42.494Z,46.80
2018-08-22T06:49:12.432Z,46.60
2018-08-22T06:51:40.781Z,46.30
2018-08-22T06:54:09.901Z,46.10
2018-08-22T06:56:38.112Z,45.50
2018-08-22T06:59:07.884Z,45.50
2018-08-22T07:01:36.443Z,45.60
2018-08-22T07:04:05.108Z,45.50
2018-08-22T07:06:33.621Z,45.20
2018-08-22T07:09:01.862Z,45.10
2018-08-22T07:11:30.516Z,44.80
2018-08-22T07:13:59.445Z,44.90
2018-08-22T07:16:27.623Z,44.60
2018-08-22T07:18:55.959Z,44.20
2018-08-22T07:21:24.419Z,44.50
2018-08-22T07:23:52.637Z,44.50
2018-08-22T07:26:21.525Z,44.20
2018-08-22T07:28:49.962Z,44.10
2018-08-22T07:31:18.588Z,43.80
2018-08-22T07:33:46.799Z,43.70
2018-08-22T07:36:14.982Z,43.60
2018-08-22T07:38:43.233Z,43.20
2018-08-22T07:41:11.830Z,42.90
2018-08-22T07:43:40.228Z,42.30
2018-08-22T07:46:08.913Z,42.40
2018-08-22T07:48:37.550Z,42.50
2018-08-22T07:51:06.497Z,41.10
2018-08-22T07:53:34.728Z,41.60
2018-08-22T07:56:03.114Z,41.10
2018-08-22T07:58:31.661Z,40.80
2018-08-22T08:00:59.965Z,40.80
2018-08-22T08:03:28.464Z,40.90
2018-08-22T08:05:57.030Z,40.90
2018-08-22T08:08:25.541Z,39.90
2018-08-22T08:10:55.121Z,39.20
2018-08-22T08:13:27.195Z,38.60
2018-08-22T08:15:55.695Z,38.10
2018-08-22T08:18:23.938Z,37.20
2018-08-22T08:20:52.164Z,36.80
2018-08-22T08:23:20.404Z,37.30
2018-08-22T08:25:48.596Z,36.10
2018-08-22T08:28:18.337Z,35.50
2018-08-22T08:30:47.112Z,36.10
2018-08-22T08:33:15.339Z,36.20
2018-08-22T08:35:43.620Z,36.20
2018-08-22T08:38:12.116Z,36.20
2018-08-22T08:40:40.339Z,36.00
2018-08-22T08:43:08.855Z,35.70
2018-08-22T08:45:38.623Z,35.30
2018-08-22T08:48:06.931Z,35.00
2018-08-22T08:50:35.194Z,33.50
2018-08-22T08:53:04.413Z,33.90
2018-08-22T08:55:33.020Z,33.70
2018-08-22T08:58:01.364Z,33.30
2018-08-22T09:00:29.601Z,32.80
2018-08-22T09:02:57.930Z,32.60
2018-08-22T09:05:27.436Z,32.00
2018-08-22T09:07:55.807Z,31.40
2018-08-22T09:10:24.498Z,31.60
2018-08-22T09:12:53.078Z,31.60
2018-08-22T09:15:21.374Z,30.60
2018-08-22T09:17:50.605Z,30.60
2018-08-22T09:20:19.427Z,30.50
2018-08-22T09:22:47.934Z,30.00
2018-08-22T09:25:16.185Z,29.90
2018-08-22T09:27:44.638Z,29.50
2018-08-22T09:30:13.176Z,29.30
2018-08-22T09:32:41.770Z,29.20
2018-08-22T09:35:10.059Z,28.90
2018-08-22T09:37:39.015Z,28.60
2018-08-22T09:40:08.662Z,28.70
2018-08-22T09:42:36.897Z,28.40
2018-08-22T09:45:05.761Z,28.80
2018-08-22T09:47:34.671Z,27.80
2018-08-22T09:50:03.075Z,27.90
2018-08-22T09:52:31.601Z,27.90
2018-08-22T09:55:03.973Z,27.40
2018-08-22T09:57:32.694Z,27.20
2018-08-22T10:00:01.104Z,26.90
2018-08-22T10:02:30.037Z,26.70
2018-08-22T10:04:59.703Z,26.70
2018-08-22T10:07:28.073Z,26.20
2018-08-22T10:09:56.542Z,26.10
2018-08-22T10:12:24.777Z,25.60
2018-08-22T10:14:53.475Z,25.60
2018-08-22T10:17:21.788Z,25.40
2018-08-22T10:19:50.028Z,24.90
2018-08-22T10:22:18.815Z,24.60
2018-08-22T10:24:47.333Z,24.60
2018-08-22T10:27:16.173Z,25.00
2018-08-22T10:29:44.533Z,24.90
2018-08-22T10:32:13.114Z,24.80
2018-08-22T10:34:42.109Z,24.60
2018-08-22T10:37:10.722Z,24.60
2018-08-22T10:39:39.210Z,24.40
2018-08-22T10:42:08.203Z,24.00
2018-08-22T10:44:36.586Z,23.80
2018-08-22T10:47:05.288Z,23.40
2018-08-22T10:49:33.932Z,23.20
2018-08-22T10:52:02.163Z,22.80
2018-08-22T10:54:30.489Z,22.80
2018-08-22T10:56:58.730Z,22.40
2018-08-22T10:59:27.472Z,22.00
2018-08-22T11:01:55.984Z,21.30
2018-08-22T11:04:25.286Z,21.70
2018-08-22T11:06:55.622Z,21.50
2018-08-22T11:09:25.117Z,21.40
2018-08-22T11:11:53.428Z,20.90
2018-08-22T11:14:21.829Z,20.90
2018-08-22T11:16:50.542Z,21.10
2018-08-22T11:19:19.161Z,20.90
2018-08-22T11:22:04.786Z,20.90
2018-08-22T11:24:50.301Z,21.50
2018-08-22T11:27:35.765Z,21.80
2018-08-22T11:30:21.181Z,21.50
2018-08-22T11:33:06.608Z,20.90
2018-08-22T11:35:33.167Z,20.70
2018-08-22T11:38:02.716Z,20.00
2018-08-22T11:40:31.240Z,20.00
2018-08-22T11:42:59.457Z,20.10
2018-08-22T11:45:27.742Z,19.90
2018-08-22T11:47:56.163Z,19.20
2018-08-22T11:50:24.377Z,19.70
2018-08-22T11:52:52.900Z,18.30
2018-08-22T11:55:21.457Z,18.70
2018-08-22T11:57:49.675Z,18.50
2018-08-22T12:00:18.202Z,18.40
2018-08-22T12:02:46.671Z,17.90
2018-08-22T12:05:15.213Z,18.00
2018-08-22T12:07:46.377Z,18.10
2018-08-22T12:10:14.727Z,18.50
2018-08-22T12:12:43.378Z,18.60
2018-08-22T12:15:11.651Z,18.40
2018-08-22T12:17:40.182Z,18.90
2018-08-22T12:20:08.500Z,18.70
2018-08-22T12:22:37.192Z,19.30
2018-08-22T12:25:06.161Z,19.10
2018-08-22T12:27:34.667Z,19.20
2018-08-22T12:30:03.211Z,19.70
2018-08-22T12:32:31.564Z,20.40
2018-08-22T12:35:00.836Z,20.70
2018-08-22T12:37:29.541Z,20.60
2018-08-22T12:39:57.892Z,20.60
2018-08-22T12:42:26.181Z,21.10
2018-08-22T12:44:54.906Z,21.10
2018-08-22T12:47:23.376Z,21.20
2018-08-22T12:49:52.034Z,20.60
2018-08-22T12:52:20.568Z,20.70
2018-08-22T12:54:49.162Z,20.70
2018-08-22T12:57:17.553Z,20.30
2018-08-22T12:59:45.680Z,20.50
2018-08-22T13:02:14.596Z,20.00
2018-08-22T13:04:43.102Z,20.20
2018-08-22T13:07:12.404Z,20.80
2018-08-22T13:09:40.669Z,20.30
2018-08-22T13:12:09.009Z,20.60
2018-08-22T13:14:37.479Z,20.50
2018-08-22T13:17:05.925Z,20.80
2018-08-22T13:19:34.233Z,20.30
2018-08-22T13:22:02.495Z,20.80
2018-08-22T13:24:31.318Z,21.00
2018-08-22T13:26:59.879Z,20.70
2018-08-22T13:29:29.194Z,20.50
2018-08-22T13:31:57.585Z,20.00
2018-08-22T13:34:25.931Z,20.00
2018-08-22T13:36:54.685Z,19.80
2018-08-22T13:39:23.777Z,18.60
2018-08-22T13:41:52.192Z,17.60
2018-08-22T13:44:20.385Z,17.30
2018-08-22T13:46:49.012Z,17.10
2018-08-22T13:49:17.600Z,16.50
2018-08-22T13:54:14.280Z,15.90
2018-08-22T13:56:42.506Z,15.20
2018-08-22T13:59:11.396Z,15.90
2018-08-22T14:01:40.892Z,14.70
2018-08-22T14:04:09.522Z,14.30
2018-08-22T14:06:37.728Z,14.70
2018-08-22T14:09:08.657Z,14.80
2018-08-22T14:11:37.939Z,15.40
2018-08-22T14:14:06.423Z,15.90
2018-08-22T14:16:35.028Z,15.70
2018-08-22T14:19:04.428Z,16.30
2018-08-22T14:21:32.665Z,16.70
2018-08-22T14:24:02.713Z,16.90
2018-08-22T14:26:31.388Z,17.40
2018-08-22T14:28:59.662Z,16.50
2018-08-22T14:31:27.848Z,15.80
2018-08-22T14:36:24.781Z,16.10
2018-08-22T14:38:53.921Z,17.00
2018-08-22T14:41:22.702Z,17.40
2018-08-22T14:43:51.783Z,17.70
2018-08-22T14:46:20.144Z,18.20
2018-08-22T14:48:49.153Z,18.60
2018-08-22T14:51:17.453Z,19.10
2018-08-22T14:53:46.069Z,19.60
2018-08-22T14:56:14.712Z,20.00
2018-08-22T14:58:43.511Z,20.00
2018-08-22T15:01:12.035Z,20.10
2018-08-22T15:06:08.542Z,20.80
2018-08-22T15:08:37.568Z,21.00
2018-08-22T15:11:06.483Z,21.00
2018-08-22T15:16:03.485Z,21.40
2018-08-22T15:18:31.801Z,21.80
2018-08-22T15:21:00.235Z,22.00
2018-08-22T15:23:28.480Z,21.90
2018-08-22T15:25:56.809Z,22.20
2018-08-22T15:28:25.233Z,22.30
2018-08-22T15:30:53.512Z,22.80
2018-08-22T15:33:21.768Z,23.20
2018-08-22T15:35:50.253Z,24.70
2018-08-22T15:38:18.844Z,25.40
2018-08-22T15:40:47.415Z,26.40
2018-08-22T15:45:46.473Z,27.80
2018-08-22T15:50:47.147Z,29.20
2018-08-22T15:53:16.525Z,30.90
2018-08-22T15:55:45.460Z,31.70
2018-08-22T15:58:14.385Z,32.80
2018-08-22T16:00:45.047Z,33.40
2018-08-22T16:03:13.355Z,34.80
2018-08-22T16:05:42.662Z,35.30
2018-08-22T16:08:11.498Z,35.40
2018-08-22T16:10:40.309Z,35.90
2018-08-22T16:13:18.755Z,36.60
2018-08-22T16:15:49.626Z,36.60
2018-08-22T16:18:24.648Z,36.80
2018-08-22T16:20:53.834Z,36.90
2018-08-22T16:23:25.771Z,36.40
2018-08-22T16:25:54.678Z,36.40
2018-08-22T16:28:23.611Z,36.40
2018-08-22T16:30:57.768Z,37.20
2018-08-22T16:33:23.277Z,37.60
2018-08-22T16:35:51.573Z,38.50
2018-08-22T16:38:20.289Z,39.10
2018-08-22T16:40:51.330Z,40.40
2018-08-22T16:43:41.372Z,40.40
2018-08-22T16:46:12.074Z,40.30
2018-08-22T16:48:41.732Z,39.80
2018-08-22T16:51:10.229Z,39.10
2018-08-22T16:53:38.597Z,38.80
2018-08-22T16:56:06.886Z,39.30
2018-08-22T16:58:35.840Z,38.90
2018-08-22T17:01:04.289Z,39.00
2018-08-22T17:03:39.473Z,38.40
2018-08-22T17:06:13.255Z,38.90
2018-08-22T17:08:41.541Z,38.80
2018-08-22T17:11:11.383Z,37.70
2018-08-22T17:13:51.392Z,36.90
2018-08-22T17:16:20.367Z,34.50
2018-08-22T17:18:48.626Z,35.00
2018-08-22T17:26:15.104Z,31.80
2018-08-22T17:28:47.508Z,31.50
2018-08-22T17:31:17.100Z,31.20
2018-08-22T17:33:51.640Z,32.40
2018-08-22T17:36:20.109Z,33.30
2018-08-22T17:38:50.635Z,33.80
2018-08-22T17:41:21.571Z,33.70
2018-08-22T17:44:06.983Z,33.70
2018-08-22T17:46:38.361Z,33.50
2018-08-22T17:49:07.847Z,34.80
2018-08-22T17:52:09.620Z,35.20
2018-08-22T17:54:37.977Z,35.60
2018-08-22T17:57:25.739Z,36.10
2018-08-22T17:59:57.193Z,36.40
2018-08-22T18:02:25.745Z,36.80
2018-08-22T18:05:01.297Z,37.40
2018-08-22T18:07:29.816Z,37.30
2018-08-22T18:09:58.190Z,38.10
2018-08-22T18:12:28.066Z,38.50
2018-08-22T18:15:00.445Z,39.10
2018-08-22T18:17:28.891Z,39.60
2018-08-22T18:19:57.157Z,39.90
2018-08-22T18:22:32.579Z,40.30
2018-08-22T18:27:30.801Z,40.70
2018-08-22T18:29:59.284Z,41.10
2018-08-22T18:32:28.102Z,41.50
2018-08-22T18:35:13.577Z,41.50
2018-08-22T18:37:42.514Z,41.40
2018-08-22T18:40:18.070Z,42.00
2018-08-22T18:42:55.702Z,42.20
2018-08-22T18:45:24.807Z,42.70
2018-08-22T18:47:53.064Z,44.00
2018-08-22T18:50:21.395Z,43.50
2018-08-22T18:52:53.215Z,43.90
2018-08-22T18:55:24.317Z,44.00
2018-08-22T18:57:53.220Z,44.50
2018-08-22T19:00:22.744Z,44.50
2018-08-22T19:02:53.249Z,44.90
2018-08-22T19:05:31.888Z,45.00
2018-08-22T19:08:12.110Z,45.20
2018-08-22T19:10:42.040Z,45.90
2018-08-22T19:13:25.767Z,45.80
2018-08-22T19:15:57.748Z,45.90
2018-08-22T19:18:26.265Z,46.50
2018-08-22T19:20:58.092Z,46.00
2018-08-22T19:23:26.767Z,46.00
2018-08-22T19:25:56.084Z,46.40
2018-08-22T19:28:24.523Z,46.40
2018-08-22T19:30:53.807Z,46.60
2018-08-22T19:33:23.564Z,45.90
2018-08-22T19:35:51.943Z,46.50
2018-08-22T19:38:27.077Z,46.60
2018-08-22T19:40:56.366Z,47.10
2018-08-22T19:43:25.145Z,47.30
2018-08-22T19:45:53.566Z,47.70
2018-08-22T19:48:24.402Z,48.10
2018-08-22T19:50:52.998Z,48.00
2018-08-22T19:53:21.356Z,48.70
2018-08-22T19:55:49.772Z,48.80
2018-08-22T19:58:28.144Z,49.40
2018-08-22T20:00:58.100Z,49.30
2018-08-22T20:03:31.340Z,49.80
2018-08-22T20:06:00.311Z,49.60
2018-08-22T20:08:32.934Z,50.00
2018-08-22T20:11:01.511Z,50.10
2018-08-22T20:13:51.236Z,50.10
2018-08-22T20:16:20.691Z,50.10
2018-08-22T20:18:56.427Z,50.50
2018-08-22T20:21:34.083Z,50.90
2018-08-22T20:24:03.905Z,51.10
2018-08-22T20:26:32.552Z,51.10
2018-08-22T20:29:02.587Z,51.10
2018-08-22T20:31:31.965Z,51.30
2018-08-22T20:34:09.475Z,51.50
2018-08-22T20:36:37.861Z,52.20
2018-08-22T20:39:10.897Z,52.70
2018-08-22T20:41:40.175Z,52.50
2018-08-22T20:44:12.790Z,53.00
2018-08-22T20:46:42.549Z,53.20
2018-08-22T20:49:10.909Z,53.70
2018-08-22T20:51:39.402Z,53.50
2018-08-22T20:54:09.437Z,54.30
2018-08-22T20:56:48.529Z,53.90
2018-08-22T20:59:18.276Z,54.50
2018-08-22T21:01:52.220Z,54.90
2018-08-22T21:04:20.611Z,55.00
2018-08-22T21:06:49.134Z,55.10
2018-08-22T21:09:17.443Z,55.30
2018-08-22T21:11:45.813Z,55.50
2018-08-22T21:14:14.309Z,55.60
2018-08-22T21:16:43.015Z,55.50
2018-08-22T21:19:11.351Z,55.50
2018-08-22T21:21:39.852Z,55.50
2018-08-22T21:24:08.368Z,55.80
2018-08-22T21:26:44.795Z,55.50
2018-08-22T21:29:13.790Z,56.10
2018-08-22T21:31:41.996Z,56.50
2018-08-22T21:34:16.049Z,56.30
2018-08-22T21:36:45.925Z,56.30
2018-08-22T21:39:19.923Z,56.80
2018-08-22T21:41:48.640Z,56.90
2018-08-22T21:44:19.606Z,56.90
2018-08-22T21:47:00.188Z,56.80
2018-08-22T21:49:29.090Z,57.60
2018-08-22T21:51:58.651Z,56.00
2018-08-22T21:54:28.000Z,56.50
2018-08-22T21:56:56.297Z,56.20
2018-08-22T21:59:24.542Z,56.10
2018-08-22T22:01:58.429Z,56.20
2018-08-22T22:04:34.701Z,56.40
2018-08-22T22:07:04.386Z,56.50
2018-08-22T22:09:33.865Z,56.10
2018-08-22T22:12:02.693Z,56.40
2018-08-22T22:14:32.788Z,56.70
2018-08-22T22:17:02.094Z,57.10
2018-08-22T22:19:31.669Z,57.20
2018-08-22T22:22:00.744Z,57.50
2018-08-22T22:24:29.039Z,57.50
2018-08-22T22:26:57.479Z,57.50
2018-08-22T22:29:30.944Z,57.60
2018-08-22T22:31:59.468Z,57.70
2018-08-22T22:34:28.096Z,57.60
2018-08-22T22:36:56.547Z,57.80
2018-08-22T22:39:36.725Z,57.80
2018-08-22T22:42:14.648Z,57.80
2018-08-22T22:44:50.232Z,58.10
2018-08-22T22:47:24.149Z,57.80
2018-08-22T22:49:52.985Z,56.90
2018-08-22T22:52:44.865Z,57.40
2018-08-22T22:55:13.440Z,57.40
2018-08-22T22:57:42.940Z,57.60
2018-08-22T23:00:13.145Z,57.50
2018-08-22T23:02:42.999Z,58.10
2018-08-22T23:05:11.491Z,58.00
2018-08-22T23:07:41.897Z,58.20
2018-08-22T23:10:14.213Z,58.30
2018-08-22T23:12:43.817Z,58.70
2018-08-22T23:15:16.091Z,58.60
2018-08-22T23:17:46.180Z,58.80
2018-08-22T23:20:40.229Z,58.50
2018-08-22T23:23:35.605Z,59.00
2018-08-22T23:26:11.525Z,59.00
2018-08-22T23:28:40.457Z,59.40
2018-08-22T23:31:08.800Z,58.80
2018-08-22T23:33:37.933Z,59.30
2018-08-22T23:36:06.657Z,59.30
2018-08-22T23:38:36.629Z,59.30
2018-08-22T23:41:05.136Z,59.20
2018-08-22T23:43:40.094Z,59.20
2018-08-22T23:46:09.956Z,59.80
2018-08-22T23:48:38.763Z,60.40
2018-08-22T23:51:10.553Z,60.80
2018-08-22T23:53:55.037Z,61.30
2018-08-22T23:56:28.264Z,61.00
2018-08-22T23:58:57.056Z,61.60
